PWSweather.com
Personal Weather Stations
Station Observations
VPOKROGLO
Kal Nad Kanalom, PrimorskaSI

Kal Nad KanalomPrimorskaSI

Lat: 46.072, Lon: 13.734

Elevation: 2526

Station Type: WS-2355

http://www.okroglovreme.com

Latest ConditionsUpdated 8:45:02 PM GMT+01:01 Monday, Nov 24, 2014
Currently Today's Max Today's Min Today's Average
Temperature 44.2°F6.8°C 53.2°F11.8°C 38.3°F3.5°C 44.9°F7.2°C
Dew Point 37.5°F3.1°C 42.9°F6.1°C 32.2°F0.1°C 37.7°F3.2°C
Winds 1.8 mph N2.9 kmh N 1.8 mph N2.9 kmh N - 0.3 mph 0.5 kmh
Wind Gusts 5.8 mph9.3 kmh 5.8 mph9.3 kmh - -
Humidity 77% 82% 68% 76%
Pressure 30.01 in1016.3 mb 30.08 in1018.6 mb 29.99 in1015.6 mb -
Hour Temp Dew Point Humidity Winds Wind Gusts Pressure Precip Precip Rate Daily Precip Total
08:45 PM 44.2°F6.8°C 37.5°F3.1°C 77% 1.8 mph N2.9 kmh N 5.8 mph9.3 kmh 30.01 in1016.3 mb 0.00 in0.0 mm 0.00 in/hr0.0 mm/hr 0.00 in0.0 mm
08:30 PM 43.9°F6.6°C 37.1°F2.8°C 77% 1.6 mph NW2.6 kmh NW 4.5 mph7.2 kmh 30.00 in1015.9 mb 0.00 in0.0 mm 0.00 in/hr0.0 mm/hr 0.00 in0.0 mm
08:15 PM 43.3°F6.3°C 36.9°F2.7°C 78% 0.5 mph NW0.8 kmh NW 3.4 mph5.5 kmh 30.00 in1015.9 mb 0.00 in0.0 mm 0.00 in/hr0.0 mm/hr 0.00 in0.0 mm
08:00 PM 44.4°F6.9°C 37.3°F2.9°C 76% 0.9 mph N1.4 kmh N 3.6 mph5.8 kmh 30.00 in1015.9 mb 0.00 in0.0 mm 0.00 in/hr0.0 mm/hr 0.00 in0.0 mm
07:30 PM 45.9°F7.7°C 39.4°F4.1°C 78% 1.2 mph N1.9 kmh N 3.6 mph5.8 kmh 29.99 in1015.6 mb 0.00 in0.0 mm 0.00 in/hr0.0 mm/hr 0.00 in0.0 mm
07:15 PM 43.9°F6.6°C 38.1°F3.4°C 80% 0.7 mph NNE1.1 kmh NNE 2.5 mph4.0 kmh 30.00 in1015.9 mb 0.00 in0.0 mm 0.00 in/hr0.0 mm/hr 0.00 in0.0 mm
07:00 PM 43.7°F6.5°C 37.6°F3.1°C 79% 0.2 mph SE0.3 kmh SE 1.6 mph2.6 kmh 30.01 in1016.3 mb 0.00 in0.0 mm 0.00 in/hr0.0 mm/hr 0.00 in0.0 mm
06:45 PM 44.4°F6.9°C 38.6°F3.7°C 80% 0.4 mph NNW0.6 kmh NNW 2.9 mph4.7 kmh 30.00 in1015.9 mb 0.00 in0.0 mm 0.00 in/hr0.0 mm/hr 0.00 in0.0 mm
06:30 PM 43.2°F6.2°C 37.4°F3.0°C 80% Calm Calm -- 29.99 in1015.6 mb 0.00 in0.0 mm 0.00 in/hr0.0 mm/hr 0.00 in0.0 mm
06:15 PM 43.5°F6.4°C 37.1°F2.8°C 78% 0.1 mph SW0.2 kmh SW 1.3 mph2.1 kmh 30.00 in1015.9 mb 0.00 in0.0 mm 0.00 in/hr0.0 mm/hr 0.00 in0.0 mm
06:00 PM 44.6°F7.0°C 37.8°F3.2°C 77% 0.1 mph NNW0.2 kmh NNW 1.6 mph2.6 kmh 30.00 in1015.9 mb 0.00 in0.0 mm 0.00 in/hr0.0 mm/hr 0.00 in0.0 mm
05:45 PM 45.5°F7.5°C 38.7°F3.7°C 77% 0.1 mph NNW0.2 kmh NNW 0.9 mph1.4 kmh 30.00 in1015.9 mb 0.00 in0.0 mm 0.00 in/hr0.0 mm/hr 0.00 in0.0 mm
05:30 PM 46.2°F7.9°C 39.1°F3.9°C 76% 0.2 mph NW0.3 kmh NW 1.8 mph2.9 kmh 30.00 in1015.9 mb 0.00 in0.0 mm 0.00 in/hr0.0 mm/hr 0.00 in0.0 mm
05:15 PM 46.0°F7.8°C 38.9°F3.8°C 76% Calm Calm -- 29.99 in1015.6 mb 0.00 in0.0 mm 0.00 in/hr0.0 mm/hr 0.00 in0.0 mm
05:00 PM 46.8°F8.2°C 38.9°F3.8°C 74% 0.3 mph NW0.5 kmh NW 2.5 mph4.0 kmh 30.00 in1015.9 mb 0.00 in0.0 mm 0.00 in/hr0.0 mm/hr 0.00 in0.0 mm
04:45 PM 47.8°F8.8°C 39.6°F4.2°C 73% 0.4 mph NW0.6 kmh NW 3.6 mph5.8 kmh 29.99 in1015.6 mb 0.00 in0.0 mm 0.00 in/hr0.0 mm/hr 0.00 in0.0 mm
04:30 PM 48.6°F9.2°C 40.3°F4.6°C 73% Calm Calm -- 29.99 in1015.6 mb 0.00 in0.0 mm 0.00 in/hr0.0 mm/hr 0.00 in0.0 mm
04:15 PM 48.7°F9.3°C 40.1°F4.5°C 72% Calm Calm -- 29.99 in1015.6 mb 0.00 in0.0 mm 0.00 in/hr0.0 mm/hr 0.00 in0.0 mm
04:00 PM 49.3°F9.6°C 40.6°F4.8°C 72% Calm Calm -- 29.99 in1015.6 mb 0.00 in0.0 mm 0.00 in/hr0.0 mm/hr 0.00 in0.0 mm
03:45 PM 49.6°F9.8°C 40.6°F4.8°C 71% Calm Calm -- 29.99 in1015.6 mb 0.00 in0.0 mm 0.00 in/hr0.0 mm/hr 0.00 in0.0 mm
03:30 PM 50.2°F10.1°C 41.1°F5.1°C 71% Calm Calm 1.1 mph1.8 kmh 29.99 in1015.6 mb 0.00 in0.0 mm 0.00 in/hr0.0 mm/hr 0.00 in0.0 mm
03:15 PM 50.7°F10.4°C 40.9°F4.9°C 69% 0.1 mph S0.2 kmh S 1.3 mph2.1 kmh 29.99 in1015.6 mb 0.00 in0.0 mm 0.00 in/hr0.0 mm/hr 0.00 in0.0 mm
03:00 PM 51.1°F10.6°C 41.3°F5.2°C 69% 0.4 mph SW0.6 kmh SW 2.5 mph4.0 kmh 30.00 in1015.9 mb 0.00 in0.0 mm 0.00 in/hr0.0 mm/hr 0.00 in0.0 mm
02:45 PM 50.4°F10.2°C 41.3°F5.2°C 71% 0.1 mph NW0.2 kmh NW 1.6 mph2.6 kmh 30.00 in1015.9 mb 0.00 in0.0 mm 0.00 in/hr0.0 mm/hr 0.00 in0.0 mm
02:30 PM 50.5°F10.3°C 41.1°F5.1°C 70% 0.5 mph NW0.8 kmh NW 2.7 mph4.3 kmh 30.00 in1015.9 mb 0.00 in0.0 mm 0.00 in/hr0.0 mm/hr 0.00 in0.0 mm
02:15 PM 51.6°F10.9°C 41.8°F5.4°C 69% Calm Calm 1.1 mph1.8 kmh 29.99 in1015.6 mb 0.00 in0.0 mm 0.00 in/hr0.0 mm/hr 0.00 in0.0 mm
02:00 PM 52.0°F11.1°C 42.1°F5.6°C 69% 0.1 mph W0.2 kmh W 2.2 mph3.5 kmh 29.99 in1015.6 mb 0.00 in0.0 mm 0.00 in/hr0.0 mm/hr 0.00 in0.0 mm
01:45 PM 50.5°F10.3°C 41.1°F5.1°C 70% 0.2 mph NW0.3 kmh NW 2.0 mph3.2 kmh 29.99 in1015.6 mb 0.00 in0.0 mm 0.00 in/hr0.0 mm/hr 0.00 in0.0 mm
01:30 PM 50.9°F10.5°C 41.5°F5.3°C 70% Calm Calm 1.1 mph1.8 kmh 30.00 in1015.9 mb 0.00 in0.0 mm 0.00 in/hr0.0 mm/hr 0.00 in0.0 mm
01:15 PM 51.4°F10.8°C 41.6°F5.3°C 69% 0.2 mph NW0.3 kmh NW 2.5 mph4.0 kmh 30.00 in1015.9 mb 0.00 in0.0 mm 0.00 in/hr0.0 mm/hr 0.00 in0.0 mm
01:00 PM 51.6°F10.9°C 42.2°F5.7°C 70% 0.8 mph NW1.3 kmh NW 3.8 mph6.1 kmh 30.00 in1015.9 mb 0.00 in0.0 mm 0.00 in/hr0.0 mm/hr 0.00 in0.0 mm
12:45 PM 52.7°F11.5°C 42.8°F6.0°C 69% 0.5 mph WNW0.8 kmh WNW 2.2 mph3.5 kmh 30.01 in1016.3 mb 0.00 in0.0 mm 0.00 in/hr0.0 mm/hr 0.00 in0.0 mm
12:30 PM 53.2°F11.8°C 42.9°F6.1°C 68% 0.9 mph SW1.4 kmh SW 4.7 mph7.6 kmh 30.01 in1016.3 mb 0.00 in0.0 mm 0.00 in/hr0.0 mm/hr 0.00 in0.0 mm
12:15 PM 52.0°F11.1°C 42.5°F5.8°C 70% 0.2 mph WNW0.3 kmh WNW 1.6 mph2.6 kmh 30.02 in1016.6 mb 0.00 in0.0 mm 0.00 in/hr0.0 mm/hr 0.00 in0.0 mm
12:00 PM 51.8°F11.0°C 42.3°F5.7°C 70% 0.8 mph W1.3 kmh W 2.9 mph4.7 kmh 30.02 in1016.6 mb 0.00 in0.0 mm 0.00 in/hr0.0 mm/hr 0.00 in0.0 mm
11:45 AM 50.7°F10.4°C 42.0°F5.6°C 72% Calm Calm 1.3 mph2.1 kmh 30.02 in1016.6 mb 0.00 in0.0 mm 0.00 in/hr0.0 mm/hr 0.00 in0.0 mm
11:30 AM 50.2°F10.1°C 41.1°F5.1°C 71% 0.4 mph NW0.6 kmh NW 2.0 mph3.2 kmh 30.03 in1016.9 mb 0.00 in0.0 mm 0.00 in/hr0.0 mm/hr 0.00 in0.0 mm
11:15 AM 50.2°F10.1°C 41.5°F5.3°C 72% 0.8 mph SW1.3 kmh SW 2.7 mph4.3 kmh 30.03 in1016.9 mb 0.00 in0.0 mm 0.00 in/hr0.0 mm/hr 0.00 in0.0 mm
11:00 AM 49.3°F9.6°C 41.0°F5.0°C 73% 0.7 mph SW1.1 kmh SW 2.5 mph4.0 kmh 30.04 in1017.3 mb 0.00 in0.0 mm 0.00 in/hr0.0 mm/hr 0.00 in0.0 mm
10:45 AM 49.6°F9.8°C 41.3°F5.2°C 73% 1.2 mph WSW1.9 kmh WSW 3.1 mph5.0 kmh 30.04 in1017.3 mb 0.00 in0.0 mm 0.00 in/hr0.0 mm/hr 0.00 in0.0 mm
10:30 AM 48.9°F9.4°C 41.3°F5.2°C 75% Calm Calm 0.9 mph1.4 kmh 30.04 in1017.3 mb 0.00 in0.0 mm 0.00 in/hr0.0 mm/hr 0.00 in0.0 mm
10:15 AM 48.7°F9.3°C 41.2°F5.1°C 75% 0.2 mph WSW0.3 kmh WSW 2.0 mph3.2 kmh 30.04 in1017.3 mb 0.00 in0.0 mm 0.00 in/hr0.0 mm/hr 0.00 in0.0 mm
10:00 AM 47.7°F8.7°C 40.8°F4.9°C 77% Calm Calm 1.1 mph1.8 kmh 30.03 in1016.9 mb 0.00 in0.0 mm 0.00 in/hr0.0 mm/hr 0.00 in0.0 mm
09:45 AM 46.8°F8.2°C 39.9°F4.4°C 77% Calm Calm 0.9 mph1.4 kmh 30.04 in1017.3 mb 0.00 in0.0 mm 0.00 in/hr0.0 mm/hr 0.00 in0.0 mm
09:30 AM 45.5°F7.5°C 39.0°F3.9°C 78% Calm Calm -- 30.04 in1017.3 mb 0.00 in0.0 mm 0.00 in/hr0.0 mm/hr 0.00 in0.0 mm
09:15 AM 44.4°F6.9°C 38.3°F3.5°C 79% Calm Calm -- 30.04 in1017.3 mb 0.00 in0.0 mm 0.00 in/hr0.0 mm/hr 0.00 in0.0 mm
09:00 AM 43.7°F6.5°C 37.6°F3.1°C 79% Calm Calm -- 30.04 in1017.3 mb 0.00 in0.0 mm 0.00 in/hr0.0 mm/hr 0.00 in0.0 mm
08:45 AM 43.0°F6.1°C 36.6°F2.6°C 78% 0.1 mph NE0.2 kmh NE 1.8 mph2.9 kmh 30.03 in1016.9 mb 0.00 in0.0 mm 0.00 in/hr0.0 mm/hr 0.00 in0.0 mm
08:30 AM 44.2°F6.8°C 37.8°F3.2°C 78% 0.3 mph NNW0.5 kmh NNW 2.9 mph4.7 kmh 30.03 in1016.9 mb 0.00 in0.0 mm 0.00 in/hr0.0 mm/hr 0.00 in0.0 mm
08:15 AM 43.3°F6.3°C 36.9°F2.7°C 78% 0.2 mph E0.3 kmh E 1.3 mph2.1 kmh 30.03 in1016.9 mb 0.00 in0.0 mm 0.00 in/hr0.0 mm/hr 0.00 in0.0 mm
08:00 AM 44.2°F6.8°C 38.1°F3.4°C 79% Calm Calm -- 30.04 in1017.3 mb 0.00 in0.0 mm 0.00 in/hr0.0 mm/hr 0.00 in0.0 mm
07:45 AM 42.8°F6.0°C 37.1°F2.8°C 80% Calm Calm 0.9 mph1.4 kmh 30.03 in1016.9 mb 0.00 in0.0 mm 0.00 in/hr0.0 mm/hr 0.00 in0.0 mm
07:30 AM 41.7°F5.4°C 35.7°F2.1°C 79% 0.7 mph NE1.1 kmh NE 2.0 mph3.2 kmh 30.03 in1016.9 mb 0.00 in0.0 mm 0.00 in/hr0.0 mm/hr 0.00 in0.0 mm
07:15 AM 42.6°F5.9°C 36.6°F2.6°C 79% 0.4 mph N0.6 kmh N 2.5 mph4.0 kmh 30.03 in1016.9 mb 0.00 in0.0 mm 0.00 in/hr0.0 mm/hr 0.00 in0.0 mm
07:00 AM 41.5°F5.3°C 36.1°F2.3°C 81% Calm Calm -- 30.03 in1016.9 mb 0.00 in0.0 mm 0.00 in/hr0.0 mm/hr 0.00 in0.0 mm
06:45 AM 39.7°F4.3°C 34.7°F1.5°C 82% Calm Calm 0.9 mph1.4 kmh 30.03 in1016.9 mb 0.00 in0.0 mm 0.00 in/hr0.0 mm/hr 0.00 in0.0 mm
06:30 AM 39.0°F3.9°C 33.7°F0.9°C 81% 0.5 mph NNW0.8 kmh NNW 3.6 mph5.8 kmh 30.04 in1017.3 mb 0.00 in0.0 mm 0.00 in/hr0.0 mm/hr 0.00 in0.0 mm
06:15 AM 39.0°F3.9°C 33.4°F0.8°C 80% 0.1 mph SW0.2 kmh SW 1.8 mph2.9 kmh 30.03 in1016.9 mb 0.00 in0.0 mm 0.00 in/hr0.0 mm/hr 0.00 in0.0 mm
06:00 AM 39.0°F3.9°C 33.7°F0.9°C 81% 0.8 mph NE1.3 kmh NE 2.7 mph4.3 kmh 30.03 in1016.9 mb 0.00 in0.0 mm 0.00 in/hr0.0 mm/hr 0.00 in0.0 mm
05:45 AM 39.9°F4.4°C 33.9°F1.1°C 79% 0.4 mph N0.6 kmh N 2.0 mph3.2 kmh 30.03 in1016.9 mb 0.00 in0.0 mm 0.00 in/hr0.0 mm/hr 0.00 in0.0 mm
05:30 AM 40.8°F4.9°C 35.1°F1.7°C 80% 0.1 mph E0.2 kmh E 0.9 mph1.4 kmh 30.04 in1017.3 mb 0.00 in0.0 mm 0.00 in/hr0.0 mm/hr 0.00 in0.0 mm
05:15 AM 41.2°F5.1°C 35.5°F1.9°C 80% 0.4 mph N0.6 kmh N 2.9 mph4.7 kmh 30.04 in1017.3 mb 0.00 in0.0 mm 0.00 in/hr0.0 mm/hr 0.00 in0.0 mm
05:00 AM 40.6°F4.8°C 35.0°F1.7°C 80% Calm Calm 0.9 mph1.4 kmh 30.03 in1016.9 mb 0.00 in0.0 mm 0.00 in/hr0.0 mm/hr 0.00 in0.0 mm
04:45 AM 40.3°F4.6°C 34.3°F1.3°C 79% 1.3 mph NE2.1 kmh NE 2.9 mph4.7 kmh 30.04 in1017.3 mb 0.00 in0.0 mm 0.00 in/hr0.0 mm/hr 0.00 in0.0 mm
04:30 AM 39.4°F4.1°C 33.4°F0.8°C 79% 0.5 mph NNE0.8 kmh NNE 2.5 mph4.0 kmh 30.04 in1017.3 mb 0.00 in0.0 mm 0.00 in/hr0.0 mm/hr 0.00 in0.0 mm
04:15 AM 38.8°F3.8°C 32.9°F0.5°C 79% 0.2 mph NE0.3 kmh NE 1.6 mph2.6 kmh 30.04 in1017.3 mb 0.00 in0.0 mm 0.00 in/hr0.0 mm/hr 0.00 in0.0 mm
04:00 AM 39.0°F3.9°C 33.1°F0.6°C 79% Calm Calm -- 30.05 in1017.6 mb 0.00 in0.0 mm 0.00 in/hr0.0 mm/hr 0.00 in0.0 mm
03:45 AM 39.0°F3.9°C 33.1°F0.6°C 79% Calm Calm -- 30.04 in1017.3 mb 0.00 in0.0 mm 0.00 in/hr0.0 mm/hr 0.00 in0.0 mm
03:30 AM 38.3°F3.5°C 32.4°F0.2°C 79% 0.1 mph NE0.2 kmh NE 1.6 mph2.6 kmh 30.05 in1017.6 mb 0.00 in0.0 mm 0.00 in/hr0.0 mm/hr 0.00 in0.0 mm
03:15 AM 38.8°F3.8°C 32.2°F0.1°C 77% Calm Calm 1.3 mph2.1 kmh 30.06 in1017.9 mb 0.00 in0.0 mm 0.00 in/hr0.0 mm/hr 0.00 in0.0 mm
03:00 AM 40.8°F4.9°C 33.8°F1.0°C 76% 0.2 mph NW0.3 kmh NW 2.2 mph3.5 kmh 30.06 in1017.9 mb 0.00 in0.0 mm 0.00 in/hr0.0 mm/hr 0.00 in0.0 mm
02:45 AM 41.5°F5.3°C 34.9°F1.6°C 77% 0.8 mph N1.3 kmh N 2.9 mph4.7 kmh 30.06 in1017.9 mb 0.00 in0.0 mm 0.00 in/hr0.0 mm/hr 0.00 in0.0 mm
02:30 AM 40.5°F4.7°C 33.8°F1.0°C 77% 0.1 mph NE0.2 kmh NE 2.2 mph3.5 kmh 30.07 in1018.3 mb 0.00 in0.0 mm 0.00 in/hr0.0 mm/hr 0.00 in0.0 mm
02:15 AM 41.5°F5.3°C 34.5°F1.4°C 76% 0.2 mph N0.3 kmh N 1.6 mph2.6 kmh 30.07 in1018.3 mb 0.00 in0.0 mm 0.00 in/hr0.0 mm/hr 0.00 in0.0 mm
02:00 AM 41.7°F5.4°C 35.0°F1.7°C 77% 0.2 mph NE0.3 kmh NE 2.0 mph3.2 kmh 30.06 in1017.9 mb 0.00 in0.0 mm 0.00 in/hr0.0 mm/hr 0.00 in0.0 mm
01:45 AM 40.6°F4.8°C 34.3°F1.3°C 78% 0.5 mph NE0.8 kmh NE 2.9 mph4.7 kmh 30.07 in1018.3 mb 0.00 in0.0 mm 0.00 in/hr0.0 mm/hr 0.00 in0.0 mm
01:30 AM 40.8°F4.9°C 34.2°F1.2°C 77% 0.4 mph N0.6 kmh N 2.5 mph4.0 kmh 30.07 in1018.3 mb 0.00 in0.0 mm 0.00 in/hr0.0 mm/hr 0.00 in0.0 mm
01:15 AM 40.5°F4.7°C 34.1°F1.2°C 78% Calm Calm -- 30.07 in1018.3 mb 0.00 in0.0 mm 0.00 in/hr0.0 mm/hr 0.00 in0.0 mm
01:00 AM 40.6°F4.8°C 34.3°F1.3°C 78% Calm Calm 0.9 mph1.4 kmh 30.07 in1018.3 mb 0.00 in0.0 mm 0.00 in/hr0.0 mm/hr 0.00 in0.0 mm
12:45 AM 40.5°F4.7°C 34.1°F1.2°C 78% Calm Calm -- 30.07 in1018.3 mb 0.00 in0.0 mm 0.00 in/hr0.0 mm/hr 0.00 in0.0 mm
12:30 AM 40.3°F4.6°C 34.0°F1.1°C 78% 0.1 mph SE0.2 kmh SE 1.8 mph2.9 kmh 30.07 in1018.3 mb 0.00 in0.0 mm 0.00 in/hr0.0 mm/hr 0.00 in0.0 mm
12:15 AM 40.6°F4.8°C 34.3°F1.3°C 78% Calm Calm 0.9 mph1.4 kmh 30.08 in1018.6 mb 0.00 in0.0 mm 0.00 in/hr0.0 mm/hr 0.00 in0.0 mm
12:00 AM 40.8°F4.9°C 34.5°F1.4°C 78% Calm Calm -- 30.08 in1018.6 mb 0.00 in0.0 mm 0.00 in/hr0.0 mm/hr 0.00 in0.0 mm